createdAt,value
2018-12-01T00:00:29.237Z,96.88
2018-12-01T00:02:58.004Z,96.79
2018-12-01T00:05:26.688Z,96.80
2018-12-01T00:07:56.692Z,97.08
2018-12-01T00:10:25.293Z,96.87
2018-12-01T00:12:53.924Z,96.28
2018-12-01T00:15:24.730Z,96.70
2018-12-01T00:17:53.483Z,96.79
2018-12-01T00:20:24.391Z,97.23
2018-12-01T00:22:53.952Z,96.97
2018-12-01T00:25:22.534Z,97.03
2018-12-01T00:27:51.921Z,96.71
2018-12-01T00:30:23.385Z,96.77
2018-12-01T00:32:52.114Z,96.40
2018-12-01T00:35:20.741Z,96.47
2018-12-01T00:37:49.284Z,96.41
2018-12-01T00:40:20.601Z,96.81
2018-12-01T00:42:49.976Z,96.67
2018-12-01T00:45:21.238Z,97.20
2018-12-01T00:47:51.816Z,96.89
2018-12-01T00:50:22.280Z,96.52
2018-12-01T00:52:52.347Z,96.49
2018-12-01T00:55:21.079Z,96.34
2018-12-01T00:57:49.651Z,96.27
2018-12-01T01:00:20.927Z,96.81
2018-12-01T01:02:53.862Z,96.69
2018-12-01T01:05:25.211Z,96.43
2018-12-01T01:07:54.813Z,96.39
2018-12-01T01:10:25.286Z,96.65
2018-12-01T01:12:53.854Z,96.67
2018-12-01T01:15:22.398Z,96.55
2018-12-01T01:17:51.931Z,96.93
2018-12-01T01:20:23.572Z,96.87
2018-12-01T01:22:52.309Z,97.22
2018-12-01T01:25:20.896Z,97.23
2018-12-01T01:27:49.457Z,97.57
2018-12-01T01:30:22.777Z,97.22
2018-12-01T01:32:52.164Z,96.67
2018-12-01T01:35:20.763Z,96.62
2018-12-01T01:37:49.332Z,96.96
2018-12-01T01:40:18.405Z,96.93
2018-12-01T01:42:47.031Z,96.67
2018-12-01T01:45:16.798Z,96.42
2018-12-01T01:47:45.594Z,96.04
2018-12-01T01:50:17.333Z,96.12
2018-12-01T01:52:45.967Z,96.49
2018-12-01T01:55:15.280Z,96.44
2018-12-01T01:57:44.719Z,96.83
2018-12-01T02:00:18.256Z,96.87
2018-12-01T02:02:49.713Z,96.62
2018-12-01T02:05:20.335Z,96.56
2018-12-01T02:07:50.139Z,96.12
2018-12-01T02:10:20.732Z,96.52
2018-12-01T02:12:49.341Z,96.34
2018-12-01T02:15:17.916Z,96.11
2018-12-01T02:17:46.491Z,96.43
2018-12-01T02:20:17.106Z,95.97
2018-12-01T02:22:45.795Z,96.21
2018-12-01T02:25:15.652Z,96.26
2018-12-01T02:27:44.827Z,96.59
2018-12-01T02:30:18.349Z,96.31
2018-12-01T02:32:47.266Z,95.90
2018-12-01T02:35:18.018Z,96.13
2018-12-01T02:37:47.702Z,96.18
2018-12-01T02:40:16.295Z,95.80
2018-12-01T02:42:45.876Z,95.74
2018-12-01T02:45:25.758Z,95.98
2018-12-01T02:47:54.352Z,95.90
2018-12-01T02:50:24.155Z,96.29
2018-12-01T02:52:54.676Z,96.72
2018-12-01T02:55:23.272Z,96.76
2018-12-01T02:57:51.898Z,96.66
2018-12-01T03:00:21.465Z,96.75
2018-12-01T03:02:50.902Z,96.85
2018-12-01T03:05:20.474Z,96.90
2018-12-01T03:07:49.941Z,97.24
2018-12-01T03:10:20.972Z,97.04
2018-12-01T03:12:51.596Z,97.14
2018-12-01T03:15:20.741Z,96.94
2018-12-01T03:17:51.374Z,96.98
2018-12-01T03:20:21.012Z,97.11
2018-12-01T03:22:49.617Z,96.86
2018-12-01T03:25:19.178Z,96.49
2018-12-01T03:27:48.535Z,96.25
2018-12-01T03:30:19.672Z,95.47
2018-12-01T03:32:48.848Z,95.48
2018-12-01T03:35:17.663Z,95.21
2018-12-01T03:37:47.368Z,95.83
2018-12-01T03:40:16.680Z,95.69
2018-12-01T03:42:46.324Z,95.20
2018-12-01T03:45:16.824Z,95.45
2018-12-01T03:47:46.119Z,95.92
2018-12-01T03:50:21.472Z,96.12
2018-12-01T03:52:51.314Z,96.16
2018-12-01T03:55:30.486Z,96.50
2018-12-01T03:57:59.148Z,97.11
2018-12-01T04:00:30.390Z,97.33
2018-12-01T04:03:00.127Z,97.58
2018-12-01T04:05:28.789Z,97.28
2018-12-01T04:07:58.283Z,97.11
2018-12-01T04:10:27.686Z,96.57
2018-12-01T04:12:57.507Z,96.36
2018-12-01T04:15:27.236Z,95.88
2018-12-01T04:17:56.654Z,95.71
2018-12-01T04:20:26.123Z,95.76
2018-12-01T04:22:55.789Z,95.50
2018-12-01T04:25:25.415Z,95.30
2018-12-01T04:27:54.008Z,95.12
2018-12-01T04:30:23.769Z,95.19
2018-12-01T04:32:52.375Z,95.71
2018-12-01T04:35:22.813Z,95.84
2018-12-01T04:37:55.364Z,95.76
2018-12-01T04:40:24.304Z,95.65
2018-12-01T04:42:53.532Z,95.89
2018-12-01T04:45:22.171Z,95.95
2018-12-01T04:47:50.888Z,95.78
2018-12-01T04:50:20.346Z,96.35
2018-12-01T04:52:49.481Z,96.24
2018-12-01T04:55:19.903Z,96.63
2018-12-01T04:57:49.335Z,96.35
2018-12-01T05:00:19.787Z,96.42
2018-12-01T05:02:49.373Z,96.61
2018-12-01T05:05:19.878Z,96.59
2018-12-01T05:07:48.511Z,96.89
2018-12-01T05:10:18.973Z,96.64
2018-12-01T05:12:47.546Z,96.67
2018-12-01T05:15:18.853Z,96.18
2018-12-01T05:17:47.676Z,95.96
2018-12-01T05:20:17.435Z,96.08
2018-12-01T05:22:47.075Z,95.53
2018-12-01T05:25:15.691Z,95.38
2018-12-01T05:27:44.702Z,94.91
2018-12-01T05:30:15.210Z,95.41
2018-12-01T05:32:44.635Z,95.83
2018-12-01T05:35:18.201Z,96.06
2018-12-01T05:37:46.765Z,95.57
2018-12-01T05:40:15.519Z,95.32
2018-12-01T05:42:45.092Z,95.66
2018-12-01T05:45:19.600Z,95.84
2018-12-01T05:47:49.351Z,95.95
2018-12-01T05:50:22.516Z,95.95
2018-12-01T05:52:51.938Z,96.25
2018-12-01T05:55:21.435Z,96.79
2018-12-01T05:57:50.023Z,96.73
2018-12-01T06:00:18.880Z,97.16
2018-12-01T06:02:47.523Z,96.79
2018-12-01T06:05:16.082Z,97.08
2018-12-01T06:07:45.776Z,96.99
2018-12-01T06:10:18.482Z,97.01
2018-12-01T06:12:47.498Z,97.34
2018-12-01T06:15:16.833Z,97.04
2018-12-01T06:17:46.338Z,96.98
2018-12-01T06:20:17.184Z,97.01
2018-12-01T06:22:45.829Z,96.98
2018-12-01T06:25:16.451Z,97.09
2018-12-01T06:27:45.873Z,97.30
2018-12-01T06:30:17.417Z,97.60
2018-12-01T06:32:47.322Z,97.83
2018-12-01T06:35:16.036Z,97.78
2018-12-01T06:37:46.635Z,97.91
2018-12-01T06:40:17.419Z,98.14
2018-12-01T06:42:46.031Z,97.71
2018-12-01T06:45:17.046Z,97.79
2018-12-01T06:47:46.588Z,97.00
2018-12-01T06:50:18.421Z,97.00
2018-12-01T06:52:47.851Z,96.30
2018-12-01T06:55:17.194Z,96.92
2018-12-01T06:57:47.379Z,96.93
2018-12-01T07:00:18.156Z,96.81
2018-12-01T07:02:48.112Z,96.69
2018-12-01T07:05:17.363Z,96.22
2018-12-01T07:07:45.966Z,96.20
2018-12-01T07:10:18.634Z,96.61
2018-12-01T07:12:49.487Z,96.88
2018-12-01T07:15:21.503Z,96.99
2018-12-01T07:17:50.994Z,96.98
2018-12-01T07:20:19.845Z,96.86
2018-12-01T07:22:48.382Z,96.17
2018-12-01T07:25:17.972Z,95.95
2018-12-01T07:27:46.609Z,95.65
2018-12-01T07:30:15.659Z,95.53
2018-12-01T07:32:45.948Z,95.79
2018-12-01T07:35:15.216Z,96.20
2018-12-01T07:37:44.325Z,96.59
2018-12-01T07:40:15.349Z,96.02
2018-12-01T07:42:45.796Z,96.00
2018-12-01T07:45:15.966Z,95.80
2018-12-01T07:47:46.512Z,95.16
2018-12-01T07:50:18.069Z,95.87
2018-12-01T07:52:48.127Z,96.53
2018-12-01T07:55:16.729Z,96.88
2018-12-01T07:57:46.279Z,96.78
2018-12-01T08:00:15.965Z,96.53
2018-12-01T08:02:48.362Z,96.23
2018-12-01T08:05:17.981Z,96.25
2018-12-01T08:07:47.471Z,96.50
2018-12-01T08:10:17.119Z,96.78
2018-12-01T08:12:45.672Z,96.68
2018-12-01T08:15:17.250Z,96.35
2018-12-01T08:17:47.323Z,96.68
2018-12-01T08:20:17.625Z,96.00
2018-12-01T08:22:46.235Z,95.44
2018-12-01T08:25:18.952Z,95.13
2018-12-01T08:27:50.027Z,95.20
2018-12-01T08:30:22.229Z,95.22
2018-12-01T08:32:51.846Z,95.44
2018-12-01T08:35:21.336Z,95.73
2018-12-01T08:37:50.712Z,95.65
2018-12-01T08:40:22.184Z,95.32
2018-12-01T08:42:50.764Z,95.72
2018-12-01T08:45:19.302Z,95.30
2018-12-01T08:47:47.851Z,95.59
2018-12-01T08:50:19.261Z,95.22
2018-12-01T08:52:48.081Z,94.72
2018-12-01T08:55:18.821Z,95.06
2018-12-01T08:57:47.537Z,95.38
2018-12-01T09:00:22.072Z,95.37
2018-12-01T09:02:54.962Z,95.85
2018-12-01T09:05:23.528Z,95.70
2018-12-01T09:07:52.104Z,95.48
2018-12-01T09:10:21.502Z,95.19
2018-12-01T09:12:50.063Z,94.65
2018-12-01T09:15:19.572Z,94.17
2018-12-01T09:17:48.124Z,93.85
2018-12-01T09:20:17.561Z,94.12
2018-12-01T09:22:47.671Z,94.37
2018-12-01T09:25:19.130Z,93.92
2018-12-01T09:27:48.643Z,94.00
2018-12-01T09:30:21.471Z,94.05
2018-12-01T09:32:51.035Z,93.73
2018-12-01T09:35:27.319Z,93.20
2018-12-01T09:37:57.170Z,92.84
2018-12-01T09:40:26.597Z,92.78
2018-12-01T09:42:56.179Z,92.59
2018-12-01T09:45:26.198Z,92.83
2018-12-01T09:47:56.531Z,94.12
2018-12-01T09:50:25.998Z,94.75
2018-12-01T09:52:56.455Z,94.51
2018-12-01T09:55:28.229Z,94.69
2018-12-01T09:57:58.207Z,94.56
2018-12-01T10:00:28.625Z,94.56
2018-12-01T10:02:58.382Z,95.09
2018-12-01T10:05:26.999Z,95.05
2018-12-01T10:07:56.406Z,94.78
2018-12-01T10:10:25.064Z,95.46
2018-12-01T10:12:54.900Z,95.33
2018-12-01T10:15:25.754Z,95.73
2018-12-01T10:17:54.324Z,95.19
2018-12-01T10:20:30.061Z,95.43
2018-12-01T10:22:59.431Z,95.97
2018-12-01T10:25:28.053Z,95.84
2018-12-01T10:27:56.603Z,96.62
2018-12-01T10:30:25.161Z,96.58
2018-12-01T10:32:54.742Z,96.55
2018-12-01T10:35:24.237Z,96.15
2018-12-01T10:37:54.373Z,95.85
2018-12-01T10:40:22.923Z,95.05
2018-12-01T10:42:51.477Z,94.60
2018-12-01T10:45:20.778Z,94.25
2018-12-01T10:47:49.343Z,94.07
2018-12-01T10:50:20.886Z,93.04
2018-12-01T10:52:50.759Z,93.07
2018-12-01T10:55:27.318Z,93.15
2018-12-01T10:58:01.902Z,92.92
2018-12-01T11:00:35.705Z,93.19
2018-12-01T11:03:06.529Z,92.84
2018-12-01T11:05:36.995Z,92.15
2018-12-01T11:08:07.492Z,91.77
2018-12-01T11:10:37.138Z,92.26
2018-12-01T11:13:06.678Z,92.59
2018-12-01T11:15:35.260Z,92.06
2018-12-01T11:18:03.831Z,91.98
2018-12-01T11:20:32.509Z,92.88
2018-12-01T11:23:01.037Z,93.40
2018-12-01T11:25:30.607Z,93.17
2018-12-01T11:27:59.148Z,92.89
2018-12-01T11:30:27.882Z,92.98
2018-12-01T11:32:56.384Z,93.30
2018-12-01T11:35:25.159Z,93.38
2018-12-01T11:37:53.700Z,93.69
2018-12-01T11:40:22.467Z,93.35
2018-12-01T11:42:50.965Z,93.25
2018-12-01T11:45:20.408Z,93.12
2018-12-01T11:47:50.215Z,92.91
2018-12-01T11:50:19.547Z,92.57
2018-12-01T11:52:49.897Z,92.64
2018-12-01T11:55:19.947Z,92.54
2018-12-01T11:57:49.496Z,92.56
2018-12-01T12:00:20.053Z,92.08
2018-12-01T12:02:49.625Z,92.02
2018-12-01T12:05:18.317Z,92.23
2018-12-01T12:07:58.221Z,91.83
2018-12-01T12:10:26.750Z,91.97
2018-12-01T12:12:55.515Z,91.59
2018-12-01T12:15:24.905Z,92.01
2018-12-01T12:17:55.825Z,91.48
2018-12-01T12:20:24.491Z,91.67
2018-12-01T12:22:53.109Z,91.23
2018-12-01T12:25:21.712Z,91.60
2018-12-01T12:27:50.327Z,91.74
2018-12-01T12:30:19.787Z,91.93
2018-12-01T12:32:48.579Z,91.62
2018-12-01T12:35:17.937Z,91.84
2018-12-01T12:37:47.356Z,91.89
2018-12-01T12:40:20.828Z,91.76
2018-12-01T12:42:50.438Z,91.76
2018-12-01T12:45:19.154Z,91.92
2018-12-01T12:47:48.607Z,91.97
2018-12-01T12:50:18.185Z,90.82
2018-12-01T12:52:49.497Z,90.62
2018-12-01T12:55:19.997Z,91.17
2018-12-01T12:57:48.617Z,91.02
2018-12-01T13:00:20.098Z,91.81
2018-12-01T13:02:50.907Z,91.59
2018-12-01T13:05:21.803Z,91.12
2018-12-01T13:07:51.232Z,91.50
2018-12-01T13:10:21.083Z,91.40
2018-12-01T13:12:51.840Z,91.14
2018-12-01T13:15:19.587Z,91.40
2018-12-01T13:17:49.182Z,92.26
2018-12-01T13:20:19.675Z,91.35
2018-12-01T13:22:50.290Z,91.02
2018-12-01T13:25:18.843Z,91.27
2018-12-01T13:27:52.906Z,91.12
2018-12-01T13:30:23.242Z,91.22
2018-12-01T13:32:51.838Z,91.44
2018-12-01T13:35:20.463Z,91.40
2018-12-01T13:37:49.153Z,91.67
2018-12-01T13:40:17.880Z,91.76
2018-12-01T13:42:47.390Z,92.30
2018-12-01T13:45:17.026Z,92.41
2018-12-01T13:47:48.246Z,92.12
2018-12-01T13:50:18.667Z,93.41
2018-12-01T13:52:52.609Z,93.04
2018-12-01T13:55:21.244Z,93.33
2018-12-01T13:57:49.807Z,93.42
2018-12-01T14:00:21.571Z,93.07
2018-12-01T14:02:51.000Z,91.67
2018-12-01T14:05:19.877Z,91.64
2018-12-01T14:07:48.430Z,91.79
2018-12-01T14:10:19.152Z,91.73
2018-12-01T14:12:48.992Z,91.73
2018-12-01T14:15:22.651Z,91.41
2018-12-01T14:17:51.297Z,91.91
2018-12-01T14:20:20.306Z,92.06
2018-12-01T14:22:50.675Z,92.29
2018-12-01T14:25:21.144Z,92.74
2018-12-01T14:27:59.009Z,92.72
2018-12-01T14:30:27.611Z,92.55
2018-12-01T14:32:57.092Z,92.34
2018-12-01T14:35:28.874Z,92.53
2018-12-01T14:37:59.722Z,92.82
2018-12-01T14:40:28.271Z,93.18
2018-12-01T14:42:57.770Z,93.37
2018-12-01T14:45:26.330Z,93.81
2018-12-01T14:47:54.870Z,93.84
2018-12-01T14:50:24.445Z,93.71
2018-12-01T14:52:53.049Z,93.63
2018-12-01T14:55:21.613Z,93.50
2018-12-01T14:57:50.257Z,93.34
2018-12-01T15:00:24.688Z,93.36
2018-12-01T15:02:55.337Z,93.48
2018-12-01T15:05:24.586Z,93.56
2018-12-01T15:07:53.217Z,93.32
2018-12-01T15:10:24.108Z,93.69
2018-12-01T15:12:52.962Z,93.72
2018-12-01T15:15:28.316Z,93.65
2018-12-01T15:17:57.178Z,93.68
2018-12-01T15:20:26.746Z,93.93
2018-12-01T15:22:57.572Z,93.77
2018-12-01T15:25:28.314Z,94.71
2018-12-01T15:27:57.076Z,94.82
2018-12-01T15:30:28.210Z,94.28
2018-12-01T15:33:07.321Z,94.22
2018-12-01T15:35:36.821Z,94.82
2018-12-01T15:38:07.580Z,95.16
2018-12-01T15:40:37.088Z,95.29
2018-12-01T15:43:06.860Z,95.82
2018-12-01T15:45:36.595Z,96.09
2018-12-01T15:48:06.750Z,96.25
2018-12-01T15:50:35.354Z,96.33
2018-12-01T15:53:04.064Z,96.45
2018-12-01T15:55:32.636Z,96.57
2018-12-01T15:58:01.305Z,96.96
2018-12-01T16:00:30.840Z,96.85
2018-12-01T16:02:59.542Z,96.62
2018-12-01T16:05:28.164Z,96.84
2018-12-01T16:07:58.639Z,96.31
2018-12-01T16:10:27.460Z,95.88
2018-12-01T16:13:02.863Z,96.07
2018-12-01T16:15:35.860Z,96.13
2018-12-01T16:18:06.103Z,96.11
2018-12-01T16:20:34.904Z,96.47
2018-12-01T16:23:03.676Z,96.31
2018-12-01T16:25:32.363Z,96.30
2018-12-01T16:28:01.890Z,96.04
2018-12-01T16:30:32.909Z,96.17
2018-12-01T16:33:05.541Z,96.26
2018-12-01T16:35:35.174Z,96.05
2018-12-01T16:38:05.311Z,96.35
2018-12-01T16:41:41.179Z,96.07
2018-12-01T16:44:09.917Z,96.29
2018-12-01T16:46:38.918Z,96.44
2018-12-01T16:49:07.638Z,96.89
2018-12-01T16:51:37.217Z,97.23
2018-12-01T16:54:06.690Z,97.42
2018-12-01T16:56:35.265Z,97.32
2018-12-01T16:59:03.850Z,97.37
2018-12-01T17:01:32.399Z,98.07
2018-12-01T17:04:01.196Z,98.07
2018-12-01T17:06:30.111Z,98.03
2018-12-01T17:08:59.536Z,97.97
2018-12-01T17:11:28.126Z,98.27
2018-12-01T17:13:57.572Z,98.11
2018-12-01T17:16:26.194Z,98.56
2018-12-01T17:18:55.764Z,98.26
2018-12-01T17:21:24.533Z,98.69
2018-12-01T17:23:53.113Z,98.28
2018-12-01T17:26:22.563Z,98.36
2018-12-01T17:28:51.961Z,98.23
2018-12-01T17:31:20.562Z,98.74
2018-12-01T17:33:50.131Z,98.31
2018-12-01T17:36:18.734Z,98.87
2018-12-01T17:38:47.318Z,98.83
2018-12-01T17:41:18.257Z,98.70
2018-12-01T17:43:49.771Z,98.86
2018-12-01T17:46:18.561Z,98.81
2018-12-01T17:48:47.181Z,98.85
2018-12-01T17:51:15.791Z,98.82
2018-12-01T17:53:49.225Z,98.68
2018-12-01T17:56:17.824Z,98.64
2018-12-01T17:58:46.429Z,98.57
2018-12-01T18:01:16.049Z,99.24
2018-12-01T18:03:45.664Z,99.09
2018-12-01T18:06:16.014Z,99.31
2018-12-01T18:08:45.328Z,99.14
2018-12-01T18:11:15.219Z,99.41
2018-12-01T18:13:45.359Z,99.17
2018-12-01T18:16:14.734Z,99.20
2018-12-01T18:18:43.662Z,99.46
2018-12-01T18:21:13.775Z,99.61
2018-12-01T18:23:44.818Z,99.37
2018-12-01T18:26:14.689Z,99.17
2018-12-01T18:28:46.870Z,99.64
2018-12-01T18:31:20.159Z,99.54
2018-12-01T18:33:52.952Z,99.32
2018-12-01T18:36:22.598Z,99.39
2018-12-01T18:38:52.129Z,99.65
2018-12-01T18:41:21.502Z,99.82
2018-12-01T18:43:51.015Z,99.82
2018-12-01T18:46:20.148Z,99.66
2018-12-01T18:48:49.537Z,99.70
2018-12-01T18:51:18.129Z,100.00
2018-12-01T18:53:46.718Z,100.00
2018-12-01T18:56:16.208Z,100.00
2018-12-01T18:58:45.809Z,100.00
2018-12-01T19:01:15.203Z,100.00
2018-12-01T19:03:44.471Z,100.00
2018-12-01T19:06:14.033Z,100.00
2018-12-01T19:08:42.570Z,100.00
2018-12-01T19:11:11.558Z,99.92
2018-12-01T19:13:40.099Z,100.00
2018-12-01T19:16:09.711Z,100.00
2018-12-01T19:18:38.256Z,100.00
2018-12-01T19:21:07.844Z,100.00
2018-12-01T19:23:36.369Z,100.00
2018-12-01T19:26:06.610Z,100.00
2018-12-01T19:28:35.339Z,100.00
2018-12-01T19:31:04.536Z,100.00
2018-12-01T19:33:33.271Z,100.00
2018-12-01T19:36:02.070Z,100.00
2018-12-01T19:38:31.185Z,100.00
2018-12-01T19:41:01.380Z,100.00
2018-12-01T19:43:30.135Z,100.00
2018-12-01T19:45:58.725Z,100.00
2018-12-01T19:48:28.401Z,100.00
2018-12-01T19:50:57.400Z,100.00
2018-12-01T19:53:26.084Z,100.00
2018-12-01T19:55:55.147Z,100.00
2018-12-01T19:58:29.845Z,100.00
2018-12-01T20:00:59.517Z,100.00
2018-12-01T20:03:29.722Z,100.00
2018-12-01T20:05:58.586Z,100.00
2018-12-01T20:08:27.275Z,100.00
2018-12-01T20:10:59.463Z,100.00
2018-12-01T20:13:37.670Z,100.00
2018-12-01T20:16:29.206Z,99.98
2018-12-01T20:18:58.890Z,100.00
2018-12-01T20:21:27.532Z,100.00
2018-12-01T20:23:56.154Z,100.00
2018-12-01T20:26:26.110Z,99.89
2018-12-01T20:28:55.749Z,100.00
2018-12-01T20:31:25.350Z,99.97
2018-12-01T20:33:55.620Z,99.88
2018-12-01T20:36:28.273Z,99.84
2018-12-01T20:39:32.090Z,100.00
2018-12-01T20:42:00.657Z,99.81
2018-12-01T20:44:30.250Z,100.00
2018-12-01T20:46:58.936Z,99.99
2018-12-01T20:49:28.865Z,100.00
2018-12-01T20:51:57.388Z,99.82
2018-12-01T20:54:35.430Z,99.93
2018-12-01T20:57:09.179Z,99.82
2018-12-01T20:59:38.624Z,99.58
2018-12-01T21:02:07.325Z,99.60
2018-12-01T21:04:35.867Z,99.72
2018-12-01T21:07:04.437Z,99.68
2018-12-01T21:09:32.990Z,99.20
2018-12-01T21:12:02.603Z,99.08
2018-12-01T21:14:31.466Z,99.61
2018-12-01T21:17:00.250Z,99.91
2018-12-01T21:19:28.791Z,99.68
2018-12-01T21:21:57.372Z,99.68
2018-12-01T21:24:26.265Z,99.00
2018-12-01T21:26:54.830Z,99.45
2018-12-01T21:29:24.268Z,99.33
2018-12-01T21:31:53.810Z,99.63
2018-12-01T21:34:22.533Z,99.28
2018-12-01T21:36:51.131Z,99.34
2018-12-01T21:39:20.972Z,99.04
2018-12-01T21:41:51.010Z,98.65
2018-12-01T21:44:20.676Z,98.89
2018-12-01T21:46:49.389Z,98.80
2018-12-01T21:49:18.708Z,98.76
2018-12-01T21:51:48.446Z,99.42
2018-12-01T21:54:18.037Z,99.29
2018-12-01T21:56:47.260Z,99.27
2018-12-01T21:59:15.995Z,99.03
2018-12-01T22:01:45.368Z,99.51
2018-12-01T22:04:14.686Z,99.09
2018-12-01T22:06:43.543Z,99.38
2018-12-01T22:09:14.299Z,98.86
2018-12-01T22:11:44.469Z,99.47
2018-12-01T22:14:13.691Z,99.44
2018-12-01T22:16:45.380Z,99.49
2018-12-01T22:19:15.594Z,99.65
2018-12-01T22:21:45.671Z,99.64
2018-12-01T22:24:14.574Z,99.69
2018-12-01T22:26:44.629Z,99.60
2018-12-01T22:29:13.773Z,99.67
2018-12-01T22:31:43.572Z,99.58
2018-12-01T22:34:12.450Z,99.63
2018-12-01T22:36:41.049Z,99.62
2018-12-01T22:39:11.205Z,99.57
2018-12-01T22:41:40.912Z,99.37
2018-12-01T22:44:09.729Z,99.68
2018-12-01T22:46:38.333Z,99.56
2018-12-01T22:49:08.040Z,99.45
2018-12-01T22:51:36.574Z,99.39
2018-12-01T22:54:05.728Z,99.17
2018-12-01T22:56:34.545Z,99.08
2018-12-01T22:59:03.217Z,99.45
2018-12-01T23:01:31.921Z,99.42
2018-12-01T23:04:00.444Z,99.48
2018-12-01T23:06:29.291Z,99.68
2018-12-01T23:08:57.811Z,99.75
2018-12-01T23:11:26.288Z,99.98
2018-12-01T23:13:54.877Z,100.00
2018-12-01T23:16:23.470Z,99.96
2018-12-01T23:18:52.241Z,99.88
2018-12-01T23:21:20.891Z,100.00
2018-12-01T23:23:49.567Z,100.00
2018-12-01T23:26:18.161Z,99.97
2018-12-01T23:28:46.702Z,100.00
2018-12-01T23:31:16.413Z,100.00
2018-12-01T23:33:45.781Z,99.88
2018-12-01T23:36:15.933Z,99.87
2018-12-01T23:38:45.380Z,99.98
2018-12-01T23:41:14.587Z,99.99
2018-12-01T23:43:44.477Z,99.84
2018-12-01T23:46:14.282Z,99.94
2018-12-01T23:48:44.533Z,99.79
2018-12-01T23:51:13.882Z,99.72
2018-12-01T23:53:42.550Z,99.58
2018-12-01T23:56:12.575Z,99.35
2018-12-01T23:58:41.985Z,99.29
